Airfield :
LOGIN :

Register | Disclaimer

   EN    FR    IT 

 










Legend :    VFR   Marginal VFR   IFR   Intensive IFR   Very Intensive IFR
Visi :
Ceiling :
>= 8 km
>= 3000ft
5 to 8 km
1000 to 3000 ft
1500m to 5 km
500 to 1000 ft
800 to 1500m
200 to 500 ft
< 800m
< 200 ft
Symbols :   Thunderstorms  Fog  Heavy snow  Heavy precipitations  Wind > 20 kt
SIGMETs :     Misc.  Thunderstorms  Icing  Turbulence  Mountain Waves  Volcanic Ashes






- Airport Elevation : 885 ft
- IATA code : BAS


LFSB - Bale-Mulhouse

CURRENT METAR :
  • 170230Z AUTO 16005KT 140V240 3200 -FZRA BR FEW007 BKN012 OVC021 M02/M02 Q1017 TEMPO 1000 SN BECMG BKN016 BKN030

EXPIRED METARs :
  • 170200Z AUTO VRB02KT 4600 BR FEW006 BKN013 OVC022 M02/M03 Q1017 TEMPO 1000 SN OVC003
  • 170130Z AUTO 16005KT 2600 BR BKN012 OVC017 M02/M03 Q1017 TEMPO 1000 SN OVC003
  • 170100Z AUTO 15005KT 3000 BR FEW010 BKN017 BKN025 M02/M03 Q1018 TEMPO 1000 SN OVC003
  • 170030Z AUTO 18005KT 4600 BR BKN026 OVC032 M02/M03 Q1018 TEMPO 1000 SN OVC003
  • 170000Z AUTO 17004KT 3900 BR FEW014 OVC026 M03/M03 Q1019 TEMPO 1000 SN OVC003

TAF TAF LFSB
Valid from the 17 at 00:00 until the 18 at 00:00 UTC


162300Z 1700/1724 14003KT 4000 BR BKN016 BKN030
TEMPO 1700/1704 1000 SN OVC003
BECMG 1705/1707 26010KT 9999 NSW
PROB30
TEMPO 1705/1709 -RASN BKN010
PROB40
TEMPO 1707/1717 27015G25KT
PROB40
TEMPO 1709/1718 -RA
Met : +33 3 89 90 31 11



MET'MAP, your aeronautical weather chart ! - Copyright ORBIFLY December 2007 - Disclaimer

ORBIFLY MET'MAP TEAM :

Programming & Development : Alexandra Zaïnal
Concept & original design : Baudouin d'Aumeries
Assistance for programming : Marc-Olivier Méhu
Technical & hardware support : Manuel Goepfert

Contact : metmap@orbifly.com




SOURCES & CREDITS :

   NOAA